sensor_id;sensor_type;location;lat;lon;timestamp;temperature;humidity
46055;DHT22;31788;6.954;-71.872;2023-04-28T00:00:01;29.60;98.20
46055;DHT22;31788;6.954;-71.872;2023-04-28T00:02:30;29.50;98.30
46055;DHT22;31788;6.954;-71.872;2023-04-28T00:04:57;29.50;98.40
46055;DHT22;31788;6.954;-71.872;2023-04-28T00:07:24;29.50;98.30
46055;DHT22;31788;6.954;-71.872;2023-04-28T00:09:51;29.50;98.40
46055;DHT22;31788;6.954;-71.872;2023-04-28T00:12:18;29.50;98.70
46055;DHT22;31788;6.954;-71.872;2023-04-28T00:14:44;29.40;98.50
46055;DHT22;31788;6.954;-71.872;2023-04-28T00:17:11;29.40;98.60
46055;DHT22;31788;6.954;-71.872;2023-04-28T00:19:37;29.40;98.60
46055;DHT22;31788;6.954;-71.872;2023-04-28T00:22:04;29.40;98.60
46055;DHT22;31788;6.954;-71.872;2023-04-28T00:24:31;29.30;98.60
46055;DHT22;31788;6.954;-71.872;2023-04-28T00:26:59;29.10;98.70
46055;DHT22;31788;6.954;-71.872;2023-04-28T00:29:28;29.20;99.00
46055;DHT22;31788;6.954;-71.872;2023-04-28T00:31:55;29.10;99.30
46055;DHT22;31788;6.954;-71.872;2023-04-28T00:34:21;29.10;99.40
46055;DHT22;31788;6.954;-71.872;2023-04-28T00:36:48;29.10;99.50
46055;DHT22;31788;6.954;-71.872;2023-04-28T00:39:15;29.10;99.60
46055;DHT22;31788;6.954;-71.872;2023-04-28T00:41:43;29.10;99.60
46055;DHT22;31788;6.954;-71.872;2023-04-28T00:44:10;29.10;99.60
46055;DHT22;31788;6.954;-71.872;2023-04-28T00:46:37;29.00;99.80
46055;DHT22;31788;6.954;-71.872;2023-04-28T00:49:04;29.00;99.60
46055;DHT22;31788;6.954;-71.872;2023-04-28T00:51:31;29.00;99.70
46055;DHT22;31788;6.954;-71.872;2023-04-28T00:53:59;29.00;99.90
46055;DHT22;31788;6.954;-71.872;2023-04-28T00:56:25;29.00;99.80
46055;DHT22;31788;6.954;-71.872;2023-04-28T00:58:53;29.10;99.60
46055;DHT22;31788;6.954;-71.872;2023-04-28T01:01:20;29.10;99.60
46055;DHT22;31788;6.954;-71.872;2023-04-28T01:03:47;29.20;99.50
46055;DHT22;31788;6.954;-71.872;2023-04-28T01:06:15;29.20;99.50
46055;DHT22;31788;6.954;-71.872;2023-04-28T01:08:42;29.10;99.40
46055;DHT22;31788;6.954;-71.872;2023-04-28T01:11:13;29.20;99.60
46055;DHT22;31788;6.954;-71.872;2023-04-28T01:13:40;29.20;99.60
46055;DHT22;31788;6.954;-71.872;2023-04-28T01:16:08;29.20;99.60
46055;DHT22;31788;6.954;-71.872;2023-04-28T01:18:34;29.10;99.50
46055;DHT22;31788;6.954;-71.872;2023-04-28T01:21:01;29.10;99.60
46055;DHT22;31788;6.954;-71.872;2023-04-28T01:23:29;29.10;99.50
46055;DHT22;31788;6.954;-71.872;2023-04-28T01:25:56;29.00;99.50
46055;DHT22;31788;6.954;-71.872;2023-04-28T01:28:23;29.10;99.50
46055;DHT22;31788;6.954;-71.872;2023-04-28T01:30:49;29.00;99.50
46055;DHT22;31788;6.954;-71.872;2023-04-28T01:33:16;29.00;99.80
46055;DHT22;31788;6.954;-71.872;2023-04-28T01:35:43;28.90;99.90
46055;DHT22;31788;6.954;-71.872;2023-04-28T01:38:10;29.00;99.80
46055;DHT22;31788;6.954;-71.872;2023-04-28T01:40:37;28.90;99.90
46055;DHT22;31788;6.954;-71.872;2023-04-28T01:43:04;28.90;99.80
46055;DHT22;31788;6.954;-71.872;2023-04-28T01:45:30;28.90;99.80
46055;DHT22;31788;6.954;-71.872;2023-04-28T01:47:57;28.90;99.90
46055;DHT22;31788;6.954;-71.872;2023-04-28T01:50:23;28.80;99.80
46055;DHT22;31788;6.954;-71.872;2023-04-28T01:52:50;28.80;99.90
46055;DHT22;31788;6.954;-71.872;2023-04-28T01:55:17;28.80;99.90
46055;DHT22;31788;6.954;-71.872;2023-04-28T01:57:43;28.70;99.90
46055;DHT22;31788;6.954;-71.872;2023-04-28T02:00:10;28.70;99.90
46055;DHT22;31788;6.954;-71.872;2023-04-28T02:02:37;28.70;99.90
46055;DHT22;31788;6.954;-71.872;2023-04-28T02:05:03;28.70;99.90
46055;DHT22;31788;6.954;-71.872;2023-04-28T02:07:30;28.70;99.90
46055;DHT22;31788;6.954;-71.872;2023-04-28T02:09:57;28.70;99.90
46055;DHT22;31788;6.954;-71.872;2023-04-28T02:12:23;28.70;99.90
46055;DHT22;31788;6.954;-71.872;2023-04-28T02:14:50;28.70;99.80
46055;DHT22;31788;6.954;-71.872;2023-04-28T02:17:17;28.70;99.80
46055;DHT22;31788;6.954;-71.872;2023-04-28T02:19:43;28.70;99.60
46055;DHT22;31788;6.954;-71.872;2023-04-28T02:22:10;28.60;99.70
46055;DHT22;31788;6.954;-71.872;2023-04-28T02:24:36;28.60;99.70
46055;DHT22;31788;6.954;-71.872;2023-04-28T02:27:05;28.60;99.60
46055;DHT22;31788;6.954;-71.872;2023-04-28T02:29:31;28.60;99.60
46055;DHT22;31788;6.954;-71.872;2023-04-28T02:31:58;28.60;99.50
46055;DHT22;31788;6.954;-71.872;2023-04-28T02:34:25;28.70;99.50
46055;DHT22;31788;6.954;-71.872;2023-04-28T02:36:51;28.60;99.40
46055;DHT22;31788;6.954;-71.872;2023-04-28T02:39:18;28.60;99.20
46055;DHT22;31788;6.954;-71.872;2023-04-28T02:41:46;28.60;99.30
46055;DHT22;31788;6.954;-71.872;2023-04-28T02:44:13;28.60;99.30
46055;DHT22;31788;6.954;-71.872;2023-04-28T02:46:40;28.50;99.40
46055;DHT22;31788;6.954;-71.872;2023-04-28T02:49:06;28.50;99.50
46055;DHT22;31788;6.954;-71.872;2023-04-28T02:51:33;28.50;99.40
46055;DHT22;31788;6.954;-71.872;2023-04-28T02:53:59;28.50;99.50
46055;DHT22;31788;6.954;-71.872;2023-04-28T02:56:26;28.50;99.50
46055;DHT22;31788;6.954;-71.872;2023-04-28T02:58:55;28.50;99.50
46055;DHT22;31788;6.954;-71.872;2023-04-28T03:01:22;28.50;99.40
46055;DHT22;31788;6.954;-71.872;2023-04-28T03:03:49;28.50;99.30
46055;DHT22;31788;6.954;-71.872;2023-04-28T03:06:17;28.50;99.20
46055;DHT22;31788;6.954;-71.872;2023-04-28T03:08:44;28.50;99.30
46055;DHT22;31788;6.954;-71.872;2023-04-28T03:11:11;28.50;99.40
46055;DHT22;31788;6.954;-71.872;2023-04-28T03:13:37;28.40;99.40
46055;DHT22;31788;6.954;-71.872;2023-04-28T03:16:04;28.50;99.30
46055;DHT22;31788;6.954;-71.872;2023-04-28T03:18:31;28.50;99.30
46055;DHT22;31788;6.954;-71.872;2023-04-28T03:20:59;28.50;99.30
46055;DHT22;31788;6.954;-71.872;2023-04-28T03:23:26;28.50;99.30
46055;DHT22;31788;6.954;-71.872;2023-04-28T03:25:53;28.40;99.30
46055;DHT22;31788;6.954;-71.872;2023-04-28T03:28:20;28.40;99.50
46055;DHT22;31788;6.954;-71.872;2023-04-28T03:30:46;28.40;99.30
46055;DHT22;31788;6.954;-71.872;2023-04-28T03:33:14;28.40;99.30
46055;DHT22;31788;6.954;-71.872;2023-04-28T03:35:41;28.40;99.40
46055;DHT22;31788;6.954;-71.872;2023-04-28T03:38:08;28.40;99.20
46055;DHT22;31788;6.954;-71.872;2023-04-28T03:40:34;28.40;99.10
46055;DHT22;31788;6.954;-71.872;2023-04-28T03:43:02;28.30;99.10
46055;DHT22;31788;6.954;-71.872;2023-04-28T03:45:28;28.30;99.10
46055;DHT22;31788;6.954;-71.872;2023-04-28T03:47:55;28.30;99.10
46055;DHT22;31788;6.954;-71.872;2023-04-28T03:50:21;28.30;99.50
46055;DHT22;31788;6.954;-71.872;2023-04-28T03:52:48;28.30;99.20
46055;DHT22;31788;6.954;-71.872;2023-04-28T03:55:15;28.30;99.10
46055;DHT22;31788;6.954;-71.872;2023-04-28T03:57:41;28.30;99.00
46055;DHT22;31788;6.954;-71.872;2023-04-28T04:00:08;28.30;99.20
46055;DHT22;31788;6.954;-71.872;2023-04-28T04:02:35;28.30;99.20
46055;DHT22;31788;6.954;-71.872;2023-04-28T04:05:03;28.30;99.10
46055;DHT22;31788;6.954;-71.872;2023-04-28T04:07:30;28.20;99.20
46055;DHT22;31788;6.954;-71.872;2023-04-28T04:09:57;28.30;99.10
46055;DHT22;31788;6.954;-71.872;2023-04-28T04:12:23;28.20;99.20
46055;DHT22;31788;6.954;-71.872;2023-04-28T04:14:50;28.20;99.30
46055;DHT22;31788;6.954;-71.872;2023-04-28T04:17:16;28.20;99.20
46055;DHT22;31788;6.954;-71.872;2023-04-28T04:19:43;28.20;99.20
46055;DHT22;31788;6.954;-71.872;2023-04-28T04:22:09;28.20;99.20
46055;DHT22;31788;6.954;-71.872;2023-04-28T04:24:36;28.20;99.10
46055;DHT22;31788;6.954;-71.872;2023-04-28T04:27:03;28.20;99.00
46055;DHT22;31788;6.954;-71.872;2023-04-28T04:29:29;28.20;98.90
46055;DHT22;31788;6.954;-71.872;2023-04-28T04:31:56;28.20;98.80
46055;DHT22;31788;6.954;-71.872;2023-04-28T04:34:23;28.20;98.80
46055;DHT22;31788;6.954;-71.872;2023-04-28T04:36:49;28.20;98.80
46055;DHT22;31788;6.954;-71.872;2023-04-28T04:39:16;28.20;98.80
46055;DHT22;31788;6.954;-71.872;2023-04-28T04:41:43;28.20;98.80
46055;DHT22;31788;6.954;-71.872;2023-04-28T04:44:09;28.20;98.90
46055;DHT22;31788;6.954;-71.872;2023-04-28T04:46:36;28.20;98.80
46055;DHT22;31788;6.954;-71.872;2023-04-28T04:49:02;28.10;98.90
46055;DHT22;31788;6.954;-71.872;2023-04-28T04:51:29;28.10;98.80
46055;DHT22;31788;6.954;-71.872;2023-04-28T04:53:56;28.10;98.90
46055;DHT22;31788;6.954;-71.872;2023-04-28T04:56:22;28.10;98.90
46055;DHT22;31788;6.954;-71.872;2023-04-28T04:58:50;28.10;98.90
46055;DHT22;31788;6.954;-71.872;2023-04-28T05:01:17;28.10;98.80
46055;DHT22;31788;6.954;-71.872;2023-04-28T05:03:44;28.10;98.80
46055;DHT22;31788;6.954;-71.872;2023-04-28T05:06:11;28.10;99.10
46055;DHT22;31788;6.954;-71.872;2023-04-28T05:08:37;28.10;98.80
46055;DHT22;31788;6.954;-71.872;2023-04-28T05:11:04;28.10;98.80
46055;DHT22;31788;6.954;-71.872;2023-04-28T05:13:30;28.10;98.70
46055;DHT22;31788;6.954;-71.872;2023-04-28T05:15:57;28.10;98.60
46055;DHT22;31788;6.954;-71.872;2023-04-28T05:18:23;28.10;98.60
46055;DHT22;31788;6.954;-71.872;2023-04-28T05:20:50;28.00;98.70
46055;DHT22;31788;6.954;-71.872;2023-04-28T05:23:17;28.00;98.80
46055;DHT22;31788;6.954;-71.872;2023-04-28T05:25:43;28.00;99.00
46055;DHT22;31788;6.954;-71.872;2023-04-28T05:28:11;27.90;98.90
46055;DHT22;31788;6.954;-71.872;2023-04-28T05:30:38;28.00;99.00
46055;DHT22;31788;6.954;-71.872;2023-04-28T05:33:05;28.00;99.10
46055;DHT22;31788;6.954;-71.872;2023-04-28T05:35:31;28.00;99.10
46055;DHT22;31788;6.954;-71.872;2023-04-28T05:37:58;27.90;99.10
46055;DHT22;31788;6.954;-71.872;2023-04-28T05:40:25;27.90;99.10
46055;DHT22;31788;6.954;-71.872;2023-04-28T05:42:52;27.90;99.00
46055;DHT22;31788;6.954;-71.872;2023-04-28T05:45:18;27.80;99.00
46055;DHT22;31788;6.954;-71.872;2023-04-28T05:47:45;27.80;99.10
46055;DHT22;31788;6.954;-71.872;2023-04-28T05:50:12;27.80;99.30
46055;DHT22;31788;6.954;-71.872;2023-04-28T05:52:39;27.80;99.30
46055;DHT22;31788;6.954;-71.872;2023-04-28T05:55:05;27.80;99.30
46055;DHT22;31788;6.954;-71.872;2023-04-28T05:57:33;27.80;99.50
46055;DHT22;31788;6.954;-71.872;2023-04-28T06:00:00;27.70;99.60
46055;DHT22;31788;6.954;-71.872;2023-04-28T06:02:26;27.70;99.70
46055;DHT22;31788;6.954;-71.872;2023-04-28T06:04:53;27.70;99.70
46055;DHT22;31788;6.954;-71.872;2023-04-28T06:07:20;27.70;99.90
46055;DHT22;31788;6.954;-71.872;2023-04-28T06:09:47;27.70;99.90
46055;DHT22;31788;6.954;-71.872;2023-04-28T06:12:14;27.70;99.90
46055;DHT22;31788;6.954;-71.872;2023-04-28T06:14:41;27.70;99.80
46055;DHT22;31788;6.954;-71.872;2023-04-28T06:17:08;27.70;99.90
46055;DHT22;31788;6.954;-71.872;2023-04-28T06:19:34;27.70;99.90
46055;DHT22;31788;6.954;-71.872;2023-04-28T06:22:01;27.70;99.80
46055;DHT22;31788;6.954;-71.872;2023-04-28T06:24:27;27.70;99.80
46055;DHT22;31788;6.954;-71.872;2023-04-28T06:26:54;27.70;99.90
46055;DHT22;31788;6.954;-71.872;2023-04-28T06:29:21;27.70;99.80
46055;DHT22;31788;6.954;-71.872;2023-04-28T06:31:49;27.70;99.90
46055;DHT22;31788;6.954;-71.872;2023-04-28T06:34:16;27.70;99.90
46055;DHT22;31788;6.954;-71.872;2023-04-28T06:36:42;27.60;99.90
46055;DHT22;31788;6.954;-71.872;2023-04-28T06:39:09;27.60;99.90
46055;DHT22;31788;6.954;-71.872;2023-04-28T06:41:35;27.50;99.90
46055;DHT22;31788;6.954;-71.872;2023-04-28T06:44:02;27.50;99.90
46055;DHT22;31788;6.954;-71.872;2023-04-28T06:46:30;27.50;99.90
46055;DHT22;31788;6.954;-71.872;2023-04-28T06:48:57;27.50;99.90
46055;DHT22;31788;6.954;-71.872;2023-04-28T06:51:23;27.50;99.90
46055;DHT22;31788;6.954;-71.872;2023-04-28T06:53:50;27.60;99.90
46055;DHT22;31788;6.954;-71.872;2023-04-28T06:56:18;27.50;99.80
46055;DHT22;31788;6.954;-71.872;2023-04-28T06:58:45;27.60;99.70
46055;DHT22;31788;6.954;-71.872;2023-04-28T07:01:12;27.70;99.60
46055;DHT22;31788;6.954;-71.872;2023-04-28T07:03:38;27.60;99.30
46055;DHT22;31788;6.954;-71.872;2023-04-28T07:06:05;27.60;99.30
46055;DHT22;31788;6.954;-71.872;2023-04-28T07:08:32;27.60;99.20
46055;DHT22;31788;6.954;-71.872;2023-04-28T07:10:59;27.60;99.30
46055;DHT22;31788;6.954;-71.872;2023-04-28T07:13:29;27.60;99.40
46055;DHT22;31788;6.954;-71.872;2023-04-28T07:15:56;27.60;99.50
46055;DHT22;31788;6.954;-71.872;2023-04-28T07:18:23;27.60;99.50
46055;DHT22;31788;6.954;-71.872;2023-04-28T07:20:50;27.50;99.50
46055;DHT22;31788;6.954;-71.872;2023-04-28T07:23:17;27.50;99.60
46055;DHT22;31788;6.954;-71.872;2023-04-28T07:25:43;27.50;99.60
46055;DHT22;31788;6.954;-71.872;2023-04-28T07:28:12;27.50;99.40
46055;DHT22;31788;6.954;-71.872;2023-04-28T07:30:39;27.50;99.50
46055;DHT22;31788;6.954;-71.872;2023-04-28T07:33:06;27.50;99.60
46055;DHT22;31788;6.954;-71.872;2023-04-28T07:35:32;27.50;99.50
46055;DHT22;31788;6.954;-71.872;2023-04-28T07:37:59;27.50;99.50
46055;DHT22;31788;6.954;-71.872;2023-04-28T07:40:26;27.50;99.50
46055;DHT22;31788;6.954;-71.872;2023-04-28T07:42:52;27.50;99.50
46055;DHT22;31788;6.954;-71.872;2023-04-28T07:45:19;27.50;99.60
46055;DHT22;31788;6.954;-71.872;2023-04-28T07:47:46;27.50;99.60
46055;DHT22;31788;6.954;-71.872;2023-04-28T07:50:12;27.50;99.50
46055;DHT22;31788;6.954;-71.872;2023-04-28T07:52:39;27.50;99.60
46055;DHT22;31788;6.954;-71.872;2023-04-28T07:55:06;27.50;99.70
46055;DHT22;31788;6.954;-71.872;2023-04-28T07:57:32;27.50;99.90
46055;DHT22;31788;6.954;-71.872;2023-04-28T07:59:59;27.50;99.90
46055;DHT22;31788;6.954;-71.872;2023-04-28T08:02:26;27.50;99.90
46055;DHT22;31788;6.954;-71.872;2023-04-28T08:04:52;27.50;99.90
46055;DHT22;31788;6.954;-71.872;2023-04-28T08:07:19;27.50;99.90
46055;DHT22;31788;6.954;-71.872;2023-04-28T08:09:46;27.50;99.80
46055;DHT22;31788;6.954;-71.872;2023-04-28T08:12:13;27.40;99.90
46055;DHT22;31788;6.954;-71.872;2023-04-28T08:14:40;27.40;99.80
46055;DHT22;31788;6.954;-71.872;2023-04-28T08:17:07;27.40;99.90
46055;DHT22;31788;6.954;-71.872;2023-04-28T08:19:34;27.40;99.90
46055;DHT22;31788;6.954;-71.872;2023-04-28T08:22:01;27.40;99.90
46055;DHT22;31788;6.954;-71.872;2023-04-28T08:24:31;27.40;99.90
46055;DHT22;31788;6.954;-71.872;2023-04-28T08:27:02;27.30;99.90
46055;DHT22;31788;6.954;-71.872;2023-04-28T08:29:29;27.40;99.90
46055;DHT22;31788;6.954;-71.872;2023-04-28T08:31:57;27.30;99.90
46055;DHT22;31788;6.954;-71.872;2023-04-28T08:34:23;27.40;99.90
46055;DHT22;31788;6.954;-71.872;2023-04-28T08:36:51;27.40;99.90
46055;DHT22;31788;6.954;-71.872;2023-04-28T08:39:18;27.40;99.90
46055;DHT22;31788;6.954;-71.872;2023-04-28T08:41:48;27.40;99.90
46055;DHT22;31788;6.954;-71.872;2023-04-28T08:44:15;27.40;99.90
46055;DHT22;31788;6.954;-71.872;2023-04-28T08:46:43;27.40;99.90
46055;DHT22;31788;6.954;-71.872;2023-04-28T08:49:17;27.30;99.80
46055;DHT22;31788;6.954;-71.872;2023-04-28T08:51:45;27.30;99.90
46055;DHT22;31788;6.954;-71.872;2023-04-28T08:54:15;27.30;99.90
46055;DHT22;31788;6.954;-71.872;2023-04-28T08:56:42;27.30;99.90
46055;DHT22;31788;6.954;-71.872;2023-04-28T08:59:12;27.30;99.90
46055;DHT22;31788;6.954;-71.872;2023-04-28T09:01:40;27.30;99.90
46055;DHT22;31788;6.954;-71.872;2023-04-28T09:04:07;27.30;99.90
46055;DHT22;31788;6.954;-71.872;2023-04-28T09:06:37;27.20;99.90
46055;DHT22;31788;6.954;-71.872;2023-04-28T09:09:23;27.20;99.90
46055;DHT22;31788;6.954;-71.872;2023-04-28T09:11:56;27.20;99.90
46055;DHT22;31788;6.954;-71.872;2023-04-28T09:14:30;27.20;99.90
46055;DHT22;31788;6.954;-71.872;2023-04-28T09:16:58;27.20;99.90
46055;DHT22;31788;6.954;-71.872;2023-04-28T09:19:32;27.20;99.90
46055;DHT22;31788;6.954;-71.872;2023-04-28T09:22:01;27.20;99.90
46055;DHT22;31788;6.954;-71.872;2023-04-28T09:24:38;27.20;99.90
46055;DHT22;31788;6.954;-71.872;2023-04-28T09:27:07;27.10;99.90
46055;DHT22;31788;6.954;-71.872;2023-04-28T09:29:38;27.10;99.90
46055;DHT22;31788;6.954;-71.872;2023-04-28T09:32:16;27.20;99.90
46055;DHT22;31788;6.954;-71.872;2023-04-28T09:34:48;27.10;99.90
46055;DHT22;31788;6.954;-71.872;2023-04-28T09:37:16;27.10;99.90
46055;DHT22;31788;6.954;-71.872;2023-04-28T09:39:48;27.10;99.90
46055;DHT22;31788;6.954;-71.872;2023-04-28T09:42:40;27.10;99.90
46055;DHT22;31788;6.954;-71.872;2023-04-28T09:45:12;27.10;99.90
46055;DHT22;31788;6.954;-71.872;2023-04-28T09:47:40;27.10;99.90
46055;DHT22;31788;6.954;-71.872;2023-04-28T09:50:09;27.10;99.90
46055;DHT22;31788;6.954;-71.872;2023-04-28T09:52:37;27.10;99.90
46055;DHT22;31788;6.954;-71.872;2023-04-28T09:55:05;27.10;99.90
46055;DHT22;31788;6.954;-71.872;2023-04-28T09:57:34;27.10;99.90
46055;DHT22;31788;6.954;-71.872;2023-04-28T10:00:03;27.00;99.90
46055;DHT22;31788;6.954;-71.872;2023-04-28T10:02:35;27.00;99.90
46055;DHT22;31788;6.954;-71.872;2023-04-28T10:05:02;27.00;99.90
46055;DHT22;31788;6.954;-71.872;2023-04-28T10:07:30;27.00;99.90
46055;DHT22;31788;6.954;-71.872;2023-04-28T10:10:02;27.00;99.90
46055;DHT22;31788;6.954;-71.872;2023-04-28T10:12:29;27.00;99.90
46055;DHT22;31788;6.954;-71.872;2023-04-28T10:14:56;27.00;99.90
46055;DHT22;31788;6.954;-71.872;2023-04-28T10:17:23;27.00;99.90
46055;DHT22;31788;6.954;-71.872;2023-04-28T10:19:56;27.00;99.90
46055;DHT22;31788;6.954;-71.872;2023-04-28T10:22:34;27.00;99.90
46055;DHT22;31788;6.954;-71.872;2023-04-28T10:25:28;27.00;99.90
46055;DHT22;31788;6.954;-71.872;2023-04-28T10:27:56;27.00;99.90
46055;DHT22;31788;6.954;-71.872;2023-04-28T10:30:24;27.00;99.90
46055;DHT22;31788;6.954;-71.872;2023-04-28T10:35:46;27.00;99.90
46055;DHT22;31788;6.954;-71.872;2023-04-28T10:38:17;27.00;99.90
46055;DHT22;31788;6.954;-71.872;2023-04-28T10:40:53;27.00;99.90
46055;DHT22;31788;6.954;-71.872;2023-04-28T10:45:58;27.00;99.90
46055;DHT22;31788;6.954;-71.872;2023-04-28T10:56:11;26.90;99.90
46055;DHT22;31788;6.954;-71.872;2023-04-28T10:58:39;26.90;99.90
46055;DHT22;31788;6.954;-71.872;2023-04-28T11:01:36;27.00;99.90
46055;DHT22;31788;6.954;-71.872;2023-04-28T11:04:07;26.90;99.90
46055;DHT22;31788;6.954;-71.872;2023-04-28T11:17:03;26.90;99.90
46055;DHT22;31788;6.954;-71.872;2023-04-28T11:22:15;26.90;99.90
46055;DHT22;31788;6.954;-71.872;2023-04-28T11:24:55;26.90;99.90
46055;DHT22;31788;6.954;-71.872;2023-04-28T11:27:32;27.00;99.90
46055;DHT22;31788;6.954;-71.872;2023-04-28T11:29:59;27.00;99.90
46055;DHT22;31788;6.954;-71.872;2023-04-28T11:32:31;27.00;99.90
46055;DHT22;31788;6.954;-71.872;2023-04-28T11:34:58;27.00;99.90
46055;DHT22;31788;6.954;-71.872;2023-04-28T11:37:24;27.00;99.90
46055;DHT22;31788;6.954;-71.872;2023-04-28T11:39:52;27.00;99.90
46055;DHT22;31788;6.954;-71.872;2023-04-28T11:42:18;27.00;99.90
46055;DHT22;31788;6.954;-71.872;2023-04-28T11:44:49;27.00;99.90
46055;DHT22;31788;6.954;-71.872;2023-04-28T11:47:31;27.00;99.90
46055;DHT22;31788;6.954;-71.872;2023-04-28T11:49:58;27.10;99.90
46055;DHT22;31788;6.954;-71.872;2023-04-28T11:52:26;27.10;99.90
46055;DHT22;31788;6.954;-71.872;2023-04-28T11:54:54;27.10;99.90
46055;DHT22;31788;6.954;-71.872;2023-04-28T11:57:21;27.10;99.90
46055;DHT22;31788;6.954;-71.872;2023-04-28T11:59:48;27.20;99.90
46055;DHT22;31788;6.954;-71.872;2023-04-28T12:02:22;27.20;99.90
46055;DHT22;31788;6.954;-71.872;2023-04-28T12:04:49;27.20;99.90
46055;DHT22;31788;6.954;-71.872;2023-04-28T12:07:18;27.20;99.90
46055;DHT22;31788;6.954;-71.872;2023-04-28T12:10:31;27.20;99.90
46055;DHT22;31788;6.954;-71.872;2023-04-28T12:12:33;27.30;99.90
46055;DHT22;31788;6.954;-71.872;2023-04-28T12:15:05;27.30;99.90
46055;DHT22;31788;6.954;-71.872;2023-04-28T12:17:37;27.40;99.90
46055;DHT22;31788;6.954;-71.872;2023-04-28T12:20:06;27.30;99.90
46055;DHT22;31788;6.954;-71.872;2023-04-28T12:22:46;27.40;99.90
46055;DHT22;31788;6.954;-71.872;2023-04-28T12:25:15;27.40;99.90
46055;DHT22;31788;6.954;-71.872;2023-04-28T12:28:02;27.50;99.90
46055;DHT22;31788;6.954;-71.872;2023-04-28T12:30:30;27.50;99.90
46055;DHT22;31788;6.954;-71.872;2023-04-28T12:32:57;27.50;99.90
46055;DHT22;31788;6.954;-71.872;2023-04-28T12:35:25;27.50;99.90
46055;DHT22;31788;6.954;-71.872;2023-04-28T12:37:53;27.50;99.90
46055;DHT22;31788;6.954;-71.872;2023-04-28T12:40:21;27.60;99.90
46055;DHT22;31788;6.954;-71.872;2023-04-28T12:42:50;27.60;99.90
46055;DHT22;31788;6.954;-71.872;2023-04-28T12:45:17;27.60;99.90
46055;DHT22;31788;6.954;-71.872;2023-04-28T12:47:44;27.70;99.90
46055;DHT22;31788;6.954;-71.872;2023-04-28T12:50:11;27.70;99.90
46055;DHT22;31788;6.954;-71.872;2023-04-28T12:52:38;27.70;99.90
46055;DHT22;31788;6.954;-71.872;2023-04-28T12:55:05;27.70;99.90
46055;DHT22;31788;6.954;-71.872;2023-04-28T12:57:35;27.80;99.90
46055;DHT22;31788;6.954;-71.872;2023-04-28T13:00:02;27.80;99.90
46055;DHT22;31788;6.954;-71.872;2023-04-28T13:02:29;27.80;99.90
46055;DHT22;31788;6.954;-71.872;2023-04-28T13:04:55;27.80;99.90
46055;DHT22;31788;6.954;-71.872;2023-04-28T13:07:22;27.80;99.90
46055;DHT22;31788;6.954;-71.872;2023-04-28T13:09:49;27.80;99.90
46055;DHT22;31788;6.954;-71.872;2023-04-28T13:12:15;27.80;99.90
46055;DHT22;31788;6.954;-71.872;2023-04-28T13:14:42;27.80;99.90
46055;DHT22;31788;6.954;-71.872;2023-04-28T13:17:08;27.80;99.90
46055;DHT22;31788;6.954;-71.872;2023-04-28T13:19:36;27.80;99.90
46055;DHT22;31788;6.954;-71.872;2023-04-28T13:22:02;27.90;99.90
46055;DHT22;31788;6.954;-71.872;2023-04-28T13:24:31;27.80;99.90
46055;DHT22;31788;6.954;-71.872;2023-04-28T13:26:58;27.90;99.90
46055;DHT22;31788;6.954;-71.872;2023-04-28T13:29:25;27.90;99.90
46055;DHT22;31788;6.954;-71.872;2023-04-28T13:31:51;28.00;99.90
46055;DHT22;31788;6.954;-71.872;2023-04-28T13:34:18;28.00;99.90
46055;DHT22;31788;6.954;-71.872;2023-04-28T13:36:45;28.00;99.90
46055;DHT22;31788;6.954;-71.872;2023-04-28T13:39:13;28.10;99.90
46055;DHT22;31788;6.954;-71.872;2023-04-28T13:41:39;28.10;99.90
46055;DHT22;31788;6.954;-71.872;2023-04-28T13:44:06;28.10;99.90
46055;DHT22;31788;6.954;-71.872;2023-04-28T13:46:33;28.10;99.90
46055;DHT22;31788;6.954;-71.872;2023-04-28T13:49:00;28.20;99.90
46055;DHT22;31788;6.954;-71.872;2023-04-28T13:51:26;28.30;99.90
46055;DHT22;31788;6.954;-71.872;2023-04-28T13:53:53;28.40;99.90
46055;DHT22;31788;6.954;-71.872;2023-04-28T13:56:20;28.40;99.90
46055;DHT22;31788;6.954;-71.872;2023-04-28T13:58:46;28.50;99.90
46055;DHT22;31788;6.954;-71.872;2023-04-28T14:01:13;28.50;99.90
46055;DHT22;31788;6.954;-71.872;2023-04-28T14:03:40;28.50;99.90
46055;DHT22;31788;6.954;-71.872;2023-04-28T14:06:07;28.60;99.90
46055;DHT22;31788;6.954;-71.872;2023-04-28T14:08:34;28.60;99.90
46055;DHT22;31788;6.954;-71.872;2023-04-28T14:11:01;28.60;99.80
46055;DHT22;31788;6.954;-71.872;2023-04-28T14:13:28;28.60;99.90
46055;DHT22;31788;6.954;-71.872;2023-04-28T14:15:56;28.70;99.50
46055;DHT22;31788;6.954;-71.872;2023-04-28T14:18:23;28.70;99.80
46055;DHT22;31788;6.954;-71.872;2023-04-28T14:20:49;28.70;99.70
46055;DHT22;31788;6.954;-71.872;2023-04-28T14:23:16;28.70;99.80
46055;DHT22;31788;6.954;-71.872;2023-04-28T14:25:43;28.70;99.80
46055;DHT22;31788;6.954;-71.872;2023-04-28T14:28:10;28.70;99.60
46055;DHT22;31788;6.954;-71.872;2023-04-28T14:30:36;28.70;99.70
46055;DHT22;31788;6.954;-71.872;2023-04-28T14:33:03;28.70;99.90
46055;DHT22;31788;6.954;-71.872;2023-04-28T14:35:30;28.80;99.80
46055;DHT22;31788;6.954;-71.872;2023-04-28T14:37:57;28.80;99.90
46055;DHT22;31788;6.954;-71.872;2023-04-28T14:40:24;28.80;99.20
46055;DHT22;31788;6.954;-71.872;2023-04-28T14:42:50;28.80;99.20
46055;DHT22;31788;6.954;-71.872;2023-04-28T14:45:18;28.80;99.50
46055;DHT22;31788;6.954;-71.872;2023-04-28T14:47:45;28.80;99.80
46055;DHT22;31788;6.954;-71.872;2023-04-28T14:50:12;28.90;99.90
46055;DHT22;31788;6.954;-71.872;2023-04-28T14:52:39;28.90;99.90
46055;DHT22;31788;6.954;-71.872;2023-04-28T14:55:06;28.90;99.90
46055;DHT22;31788;6.954;-71.872;2023-04-28T14:57:33;28.90;99.90
46055;DHT22;31788;6.954;-71.872;2023-04-28T15:00:00;28.90;99.90
46055;DHT22;31788;6.954;-71.872;2023-04-28T15:02:27;28.90;99.90
46055;DHT22;31788;6.954;-71.872;2023-04-28T15:04:57;28.90;99.90
46055;DHT22;31788;6.954;-71.872;2023-04-28T15:07:24;28.90;99.90
46055;DHT22;31788;6.954;-71.872;2023-04-28T15:09:59;28.80;99.90
46055;DHT22;31788;6.954;-71.872;2023-04-28T15:12:27;28.80;99.90
46055;DHT22;31788;6.954;-71.872;2023-04-28T15:14:57;28.80;99.90
46055;DHT22;31788;6.954;-71.872;2023-04-28T15:17:24;28.90;99.90
46055;DHT22;31788;6.954;-71.872;2023-04-28T15:19:50;28.90;99.80
46055;DHT22;31788;6.954;-71.872;2023-04-28T15:22:17;28.90;99.90
46055;DHT22;31788;6.954;-71.872;2023-04-28T15:24:44;28.90;99.90
46055;DHT22;31788;6.954;-71.872;2023-04-28T15:27:11;29.00;99.70
46055;DHT22;31788;6.954;-71.872;2023-04-28T15:29:39;29.00;99.50
46055;DHT22;31788;6.954;-71.872;2023-04-28T15:32:05;29.00;99.50
46055;DHT22;31788;6.954;-71.872;2023-04-28T15:34:32;29.10;99.50
46055;DHT22;31788;6.954;-71.872;2023-04-28T15:36:59;29.10;99.60
46055;DHT22;31788;6.954;-71.872;2023-04-28T15:39:26;29.20;99.60
46055;DHT22;31788;6.954;-71.872;2023-04-28T15:41:53;29.20;98.90
46055;DHT22;31788;6.954;-71.872;2023-04-28T15:44:21;29.30;98.60